sensor_id;sensor_type;location;lat;lon;timestamp;P1;durP1;ratioP1;P2;durP2;ratioP2
15833;SDS011;8017;50.812;4.934;2023-04-03T00:02:47;10.37;;;5.50;;
15833;SDS011;8017;50.812;4.934;2023-04-03T00:05:49;6.30;;;5.50;;
15833;SDS011;8017;50.812;4.934;2023-04-03T00:08:51;6.30;;;5.10;;
15833;SDS011;8017;50.812;4.934;2023-04-03T00:11:54;10.17;;;6.57;;
15833;SDS011;8017;50.812;4.934;2023-04-03T00:14:56;6.83;;;5.80;;
15833;SDS011;8017;50.812;4.934;2023-04-03T00:17:58;8.07;;;5.60;;
15833;SDS011;8017;50.812;4.934;2023-04-03T00:21:00;6.77;;;5.17;;
15833;SDS011;8017;50.812;4.934;2023-04-03T00:24:03;7.87;;;5.83;;
15833;SDS011;8017;50.812;4.934;2023-04-03T00:27:06;8.23;;;5.57;;
15833;SDS011;8017;50.812;4.934;2023-04-03T00:30:09;6.53;;;5.70;;
15833;SDS011;8017;50.812;4.934;2023-04-03T00:33:14;8.43;;;5.90;;
15833;SDS011;8017;50.812;4.934;2023-04-03T00:36:17;9.90;;;6.43;;
15833;SDS011;8017;50.812;4.934;2023-04-03T00:39:19;7.53;;;5.93;;
15833;SDS011;8017;50.812;4.934;2023-04-03T00:42:22;6.73;;;5.47;;
15833;SDS011;8017;50.812;4.934;2023-04-03T00:45:32;9.50;;;6.10;;
15833;SDS011;8017;50.812;4.934;2023-04-03T00:48:36;8.13;;;5.83;;
15833;SDS011;8017;50.812;4.934;2023-04-03T00:51:40;8.50;;;5.93;;
15833;SDS011;8017;50.812;4.934;2023-04-03T00:54:42;8.33;;;6.40;;
15833;SDS011;8017;50.812;4.934;2023-04-03T00:57:47;8.13;;;6.27;;
15833;SDS011;8017;50.812;4.934;2023-04-03T01:00:52;10.63;;;6.40;;
15833;SDS011;8017;50.812;4.934;2023-04-03T01:03:58;7.63;;;5.90;;
15833;SDS011;8017;50.812;4.934;2023-04-03T01:07:00;8.00;;;7.20;;
15833;SDS011;8017;50.812;4.934;2023-04-03T01:10:06;8.17;;;6.63;;
15833;SDS011;8017;50.812;4.934;2023-04-03T01:13:22;10.47;;;6.57;;
15833;SDS011;8017;50.812;4.934;2023-04-03T01:16:25;8.37;;;6.53;;
15833;SDS011;8017;50.812;4.934;2023-04-03T01:19:30;10.43;;;6.77;;
15833;SDS011;8017;50.812;4.934;2023-04-03T01:22:33;8.30;;;6.70;;
15833;SDS011;8017;50.812;4.934;2023-04-03T01:25:42;7.77;;;6.43;;
15833;SDS011;8017;50.812;4.934;2023-04-03T01:28:47;7.00;;;6.20;;
15833;SDS011;8017;50.812;4.934;2023-04-03T01:31:52;8.83;;;6.80;;
15833;SDS011;8017;50.812;4.934;2023-04-03T01:34:54;7.77;;;6.60;;
15833;SDS011;8017;50.812;4.934;2023-04-03T01:37:56;10.20;;;6.40;;
15833;SDS011;8017;50.812;4.934;2023-04-03T01:40:58;8.37;;;6.50;;
15833;SDS011;8017;50.812;4.934;2023-04-03T01:44:00;8.17;;;6.43;;
15833;SDS011;8017;50.812;4.934;2023-04-03T01:47:04;11.20;;;7.20;;
15833;SDS011;8017;50.812;4.934;2023-04-03T01:50:07;8.47;;;6.57;;
15833;SDS011;8017;50.812;4.934;2023-04-03T01:53:09;9.30;;;6.73;;
15833;SDS011;8017;50.812;4.934;2023-04-03T01:56:11;7.40;;;6.00;;
15833;SDS011;8017;50.812;4.934;2023-04-03T01:59:13;7.47;;;6.50;;
15833;SDS011;8017;50.812;4.934;2023-04-03T02:02:18;8.13;;;6.17;;
15833;SDS011;8017;50.812;4.934;2023-04-03T02:05:20;8.43;;;6.23;;
15833;SDS011;8017;50.812;4.934;2023-04-03T02:08:22;8.53;;;6.57;;
15833;SDS011;8017;50.812;4.934;2023-04-03T02:11:24;7.80;;;6.33;;
15833;SDS011;8017;50.812;4.934;2023-04-03T02:14:26;9.00;;;6.70;;
15833;SDS011;8017;50.812;4.934;2023-04-03T02:17:29;9.97;;;7.20;;
15833;SDS011;8017;50.812;4.934;2023-04-03T02:20:31;8.80;;;6.97;;
15833;SDS011;8017;50.812;4.934;2023-04-03T02:23:33;7.87;;;7.07;;
15833;SDS011;8017;50.812;4.934;2023-04-03T02:26:37;9.73;;;6.83;;
15833;SDS011;8017;50.812;4.934;2023-04-03T02:29:38;9.20;;;6.67;;
15833;SDS011;8017;50.812;4.934;2023-04-03T02:32:42;9.00;;;6.70;;
15833;SDS011;8017;50.812;4.934;2023-04-03T02:35:44;8.73;;;6.87;;
15833;SDS011;8017;50.812;4.934;2023-04-03T02:38:53;10.70;;;6.73;;
15833;SDS011;8017;50.812;4.934;2023-04-03T02:41:55;9.37;;;6.77;;
15833;SDS011;8017;50.812;4.934;2023-04-03T02:44:56;10.80;;;7.17;;
15833;SDS011;8017;50.812;4.934;2023-04-03T02:48:01;9.17;;;6.97;;
15833;SDS011;8017;50.812;4.934;2023-04-03T02:51:04;9.73;;;7.43;;
15833;SDS011;8017;50.812;4.934;2023-04-03T02:54:06;9.73;;;7.37;;
15833;SDS011;8017;50.812;4.934;2023-04-03T02:57:08;9.33;;;8.10;;
15833;SDS011;8017;50.812;4.934;2023-04-03T03:00:10;11.80;;;7.97;;
15833;SDS011;8017;50.812;4.934;2023-04-03T03:03:14;8.00;;;7.30;;
15833;SDS011;8017;50.812;4.934;2023-04-03T03:06:16;11.23;;;8.33;;
15833;SDS011;8017;50.812;4.934;2023-04-03T03:09:18;8.20;;;7.40;;
15833;SDS011;8017;50.812;4.934;2023-04-03T03:12:20;9.40;;;8.20;;
15833;SDS011;8017;50.812;4.934;2023-04-03T03:15:24;10.57;;;8.17;;
15833;SDS011;8017;50.812;4.934;2023-04-03T03:18:27;10.53;;;8.47;;
15833;SDS011;8017;50.812;4.934;2023-04-03T03:21:30;10.27;;;8.37;;
15833;SDS011;8017;50.812;4.934;2023-04-03T03:24:32;10.83;;;9.47;;
15833;SDS011;8017;50.812;4.934;2023-04-03T03:27:34;10.67;;;8.90;;
15833;SDS011;8017;50.812;4.934;2023-04-03T03:30:36;11.13;;;8.63;;
15833;SDS011;8017;50.812;4.934;2023-04-03T03:33:39;12.93;;;9.57;;
15833;SDS011;8017;50.812;4.934;2023-04-03T03:36:41;11.60;;;9.03;;
15833;SDS011;8017;50.812;4.934;2023-04-03T03:39:43;11.90;;;9.33;;
15833;SDS011;8017;50.812;4.934;2023-04-03T03:42:45;10.30;;;8.93;;
15833;SDS011;8017;50.812;4.934;2023-04-03T03:45:49;10.17;;;9.17;;
15833;SDS011;8017;50.812;4.934;2023-04-03T03:48:53;14.13;;;9.57;;
15833;SDS011;8017;50.812;4.934;2023-04-03T03:51:55;12.57;;;9.77;;
15833;SDS011;8017;50.812;4.934;2023-04-03T03:54:57;12.70;;;9.53;;
15833;SDS011;8017;50.812;4.934;2023-04-03T03:57:59;13.03;;;9.77;;
15833;SDS011;8017;50.812;4.934;2023-04-03T04:01:01;14.13;;;10.43;;
15833;SDS011;8017;50.812;4.934;2023-04-03T04:04:06;11.27;;;9.90;;
15833;SDS011;8017;50.812;4.934;2023-04-03T04:07:08;11.13;;;10.03;;
15833;SDS011;8017;50.812;4.934;2023-04-03T04:10:10;11.43;;;10.20;;
15833;SDS011;8017;50.812;4.934;2023-04-03T04:13:13;13.43;;;10.60;;
15833;SDS011;8017;50.812;4.934;2023-04-03T04:16:15;13.90;;;11.17;;
15833;SDS011;8017;50.812;4.934;2023-04-03T04:19:18;13.00;;;10.97;;
15833;SDS011;8017;50.812;4.934;2023-04-03T04:22:20;11.50;;;10.23;;
15833;SDS011;8017;50.812;4.934;2023-04-03T04:25:22;11.60;;;9.93;;
15833;SDS011;8017;50.812;4.934;2023-04-03T04:28:24;14.33;;;9.77;;
15833;SDS011;8017;50.812;4.934;2023-04-03T04:31:26;11.53;;;9.37;;
15833;SDS011;8017;50.812;4.934;2023-04-03T04:34:30;12.57;;;10.57;;
15833;SDS011;8017;50.812;4.934;2023-04-03T04:37:32;15.50;;;11.03;;
15833;SDS011;8017;50.812;4.934;2023-04-03T04:40:34;11.63;;;10.43;;
15833;SDS011;8017;50.812;4.934;2023-04-03T04:43:37;12.85;;;10.80;;
15833;SDS011;8017;50.812;4.934;2023-04-03T04:46:39;12.17;;;10.07;;
15833;SDS011;8017;50.812;4.934;2023-04-03T04:49:42;14.40;;;10.93;;
15833;SDS011;8017;50.812;4.934;2023-04-03T04:52:45;14.07;;;11.50;;
15833;SDS011;8017;50.812;4.934;2023-04-03T04:55:47;13.20;;;11.63;;
15833;SDS011;8017;50.812;4.934;2023-04-03T04:58:49;14.30;;;10.80;;
15833;SDS011;8017;50.812;4.934;2023-04-03T05:01:51;13.10;;;11.27;;
15833;SDS011;8017;50.812;4.934;2023-04-03T05:04:54;13.90;;;12.07;;
15833;SDS011;8017;50.812;4.934;2023-04-03T05:07:56;13.27;;;11.03;;
15833;SDS011;8017;50.812;4.934;2023-04-03T05:10:58;15.57;;;11.03;;
15833;SDS011;8017;50.812;4.934;2023-04-03T05:14:00;13.67;;;11.83;;
15833;SDS011;8017;50.812;4.934;2023-04-03T05:17:02;13.27;;;11.30;;
15833;SDS011;8017;50.812;4.934;2023-04-03T05:20:06;14.20;;;11.13;;
15833;SDS011;8017;50.812;4.934;2023-04-03T05:23:09;15.17;;;11.60;;
15833;SDS011;8017;50.812;4.934;2023-04-03T05:26:11;14.57;;;11.70;;
15833;SDS011;8017;50.812;4.934;2023-04-03T05:29:13;14.17;;;11.13;;
15833;SDS011;8017;50.812;4.934;2023-04-03T05:32:15;13.67;;;11.37;;
15833;SDS011;8017;50.812;4.934;2023-04-03T05:35:19;14.07;;;11.77;;
15833;SDS011;8017;50.812;4.934;2023-04-03T05:38:21;15.77;;;11.53;;
15833;SDS011;8017;50.812;4.934;2023-04-03T05:41:23;16.97;;;12.53;;
15833;SDS011;8017;50.812;4.934;2023-04-03T05:44:25;14.07;;;11.20;;
15833;SDS011;8017;50.812;4.934;2023-04-03T05:47:27;13.43;;;12.03;;
15833;SDS011;8017;50.812;4.934;2023-04-03T05:50:30;12.43;;;11.13;;
15833;SDS011;8017;50.812;4.934;2023-04-03T05:53:33;14.83;;;11.50;;
15833;SDS011;8017;50.812;4.934;2023-04-03T05:56:38;12.53;;;11.23;;
15833;SDS011;8017;50.812;4.934;2023-04-03T05:59:40;12.63;;;11.17;;
15833;SDS011;8017;50.812;4.934;2023-04-03T06:02:42;16.03;;;12.40;;
15833;SDS011;8017;50.812;4.934;2023-04-03T06:05:46;15.03;;;11.70;;
15833;SDS011;8017;50.812;4.934;2023-04-03T06:08:48;15.37;;;11.47;;
15833;SDS011;8017;50.812;4.934;2023-04-03T06:11:50;13.40;;;11.60;;
15833;SDS011;8017;50.812;4.934;2023-04-03T06:14:53;17.77;;;12.47;;
15833;SDS011;8017;50.812;4.934;2023-04-03T06:17:54;15.57;;;12.67;;
15833;SDS011;8017;50.812;4.934;2023-04-03T06:20:58;14.43;;;12.47;;
15833;SDS011;8017;50.812;4.934;2023-04-03T06:24:00;14.67;;;12.30;;
15833;SDS011;8017;50.812;4.934;2023-04-03T06:27:03;16.43;;;12.53;;
15833;SDS011;8017;50.812;4.934;2023-04-03T06:30:06;18.90;;;13.73;;
15833;SDS011;8017;50.812;4.934;2023-04-03T06:33:08;15.57;;;13.27;;
15833;SDS011;8017;50.812;4.934;2023-04-03T06:36:12;17.07;;;13.00;;
15833;SDS011;8017;50.812;4.934;2023-04-03T06:39:14;16.77;;;13.50;;
15833;SDS011;8017;50.812;4.934;2023-04-03T06:42:18;15.83;;;13.93;;
15833;SDS011;8017;50.812;4.934;2023-04-03T06:45:20;15.97;;;14.10;;
15833;SDS011;8017;50.812;4.934;2023-04-03T06:48:22;15.00;;;13.40;;
15833;SDS011;8017;50.812;4.934;2023-04-03T06:51:26;16.70;;;13.20;;
15833;SDS011;8017;50.812;4.934;2023-04-03T06:54:29;14.90;;;12.30;;
15833;SDS011;8017;50.812;4.934;2023-04-03T06:57:31;14.57;;;12.90;;
15833;SDS011;8017;50.812;4.934;2023-04-03T07:00:33;13.63;;;11.27;;
15833;SDS011;8017;50.812;4.934;2023-04-03T07:03:35;15.03;;;11.83;;
15833;SDS011;8017;50.812;4.934;2023-04-03T07:06:38;12.50;;;10.77;;
15833;SDS011;8017;50.812;4.934;2023-04-03T07:09:41;14.57;;;11.93;;
15833;SDS011;8017;50.812;4.934;2023-04-03T07:12:44;14.97;;;12.20;;
15833;SDS011;8017;50.812;4.934;2023-04-03T07:15:46;13.33;;;11.93;;
15833;SDS011;8017;50.812;4.934;2023-04-03T07:18:48;13.70;;;11.57;;
15833;SDS011;8017;50.812;4.934;2023-04-03T07:21:51;16.80;;;11.60;;
15833;SDS011;8017;50.812;4.934;2023-04-03T07:24:53;12.83;;;11.13;;
15833;SDS011;8017;50.812;4.934;2023-04-03T07:27:55;12.40;;;11.10;;
15833;SDS011;8017;50.812;4.934;2023-04-03T07:30:59;12.30;;;10.70;;
15833;SDS011;8017;50.812;4.934;2023-04-03T07:34:02;13.87;;;10.93;;
15833;SDS011;8017;50.812;4.934;2023-04-03T07:37:06;12.43;;;11.13;;
15833;SDS011;8017;50.812;4.934;2023-04-03T07:40:09;14.60;;;10.77;;
15833;SDS011;8017;50.812;4.934;2023-04-03T07:43:11;12.80;;;10.20;;
15833;SDS011;8017;50.812;4.934;2023-04-03T07:46:13;12.13;;;10.60;;
15833;SDS011;8017;50.812;4.934;2023-04-03T07:49:15;12.63;;;10.30;;
15833;SDS011;8017;50.812;4.934;2023-04-03T07:52:19;12.60;;;9.83;;
15833;SDS011;8017;50.812;4.934;2023-04-03T07:55:21;10.37;;;9.30;;
15833;SDS011;8017;50.812;4.934;2023-04-03T07:58:23;10.67;;;8.77;;
15833;SDS011;8017;50.812;4.934;2023-04-03T08:01:25;11.27;;;8.17;;
15833;SDS011;8017;50.812;4.934;2023-04-03T08:04:27;10.73;;;8.80;;
15833;SDS011;8017;50.812;4.934;2023-04-03T08:07:32;11.57;;;7.87;;
15833;SDS011;8017;50.812;4.934;2023-04-03T08:10:33;10.03;;;8.13;;
15833;SDS011;8017;50.812;4.934;2023-04-03T08:13:35;9.77;;;7.47;;
15833;SDS011;8017;50.812;4.934;2023-04-03T08:16:37;14.37;;;7.87;;
15833;SDS011;8017;50.812;4.934;2023-04-03T08:19:40;12.87;;;7.97;;
15833;SDS011;8017;50.812;4.934;2023-04-03T08:22:43;9.50;;;7.80;;
15833;SDS011;8017;50.812;4.934;2023-04-03T08:25:45;11.67;;;7.67;;
15833;SDS011;8017;50.812;4.934;2023-04-03T08:28:47;8.80;;;7.13;;
15833;SDS011;8017;50.812;4.934;2023-04-03T08:31:50;10.43;;;6.73;;
15833;SDS011;8017;50.812;4.934;2023-04-03T08:34:52;7.50;;;6.53;;
15833;SDS011;8017;50.812;4.934;2023-04-03T08:37:55;9.87;;;6.00;;
15833;SDS011;8017;50.812;4.934;2023-04-03T08:41:02;9.63;;;6.07;;
15833;SDS011;8017;50.812;4.934;2023-04-03T08:44:12;8.77;;;5.83;;
15833;SDS011;8017;50.812;4.934;2023-04-03T08:47:20;8.77;;;5.80;;
15833;SDS011;8017;50.812;4.934;2023-04-03T08:50:26;6.43;;;4.90;;
15833;SDS011;8017;50.812;4.934;2023-04-03T08:53:34;10.20;;;5.73;;
15833;SDS011;8017;50.812;4.934;2023-04-03T08:56:40;10.60;;;5.30;;
15833;SDS011;8017;50.812;4.934;2023-04-03T08:59:42;8.07;;;5.40;;
15833;SDS011;8017;50.812;4.934;2023-04-03T09:02:45;10.10;;;5.27;;
15833;SDS011;8017;50.812;4.934;2023-04-03T09:05:49;7.77;;;4.87;;
15833;SDS011;8017;50.812;4.934;2023-04-03T09:09:00;8.03;;;4.33;;
15833;SDS011;8017;50.812;4.934;2023-04-03T09:12:15;6.83;;;4.40;;
15833;SDS011;8017;50.812;4.934;2023-04-03T09:15:22;9.07;;;4.40;;
15833;SDS011;8017;50.812;4.934;2023-04-03T09:18:26;6.60;;;4.53;;
15833;SDS011;8017;50.812;4.934;2023-04-03T09:21:33;8.57;;;4.47;;
15833;SDS011;8017;50.812;4.934;2023-04-03T09:24:39;7.47;;;3.97;;
15833;SDS011;8017;50.812;4.934;2023-04-03T09:27:42;6.37;;;4.20;;
15833;SDS011;8017;50.812;4.934;2023-04-03T09:30:44;7.13;;;3.63;;
15833;SDS011;8017;50.812;4.934;2023-04-03T09:33:46;7.20;;;4.00;;
15833;SDS011;8017;50.812;4.934;2023-04-03T09:36:52;6.00;;;3.47;;
15833;SDS011;8017;50.812;4.934;2023-04-03T09:39:57;5.47;;;3.30;;
15833;SDS011;8017;50.812;4.934;2023-04-03T09:43:00;7.80;;;3.83;;
15833;SDS011;8017;50.812;4.934;2023-04-03T09:46:16;5.77;;;3.40;;
15833;SDS011;8017;50.812;4.934;2023-04-03T09:49:31;6.17;;;3.40;;
15833;SDS011;8017;50.812;4.934;2023-04-03T09:52:33;4.37;;;2.90;;
15833;SDS011;8017;50.812;4.934;2023-04-03T09:55:42;8.93;;;3.20;;
15833;SDS011;8017;50.812;4.934;2023-04-03T09:58:46;7.60;;;2.97;;
15833;SDS011;8017;50.812;4.934;2023-04-03T10:01:56;4.63;;;2.60;;
15833;SDS011;8017;50.812;4.934;2023-04-03T10:05:00;3.17;;;2.30;;
15833;SDS011;8017;50.812;4.934;2023-04-03T10:08:19;8.17;;;3.30;;
15833;SDS011;8017;50.812;4.934;2023-04-03T10:11:25;5.93;;;2.50;;
15833;SDS011;8017;50.812;4.934;2023-04-03T10:14:27;6.00;;;2.30;;
15833;SDS011;8017;50.812;4.934;2023-04-03T10:17:36;4.63;;;2.70;;
15833;SDS011;8017;50.812;4.934;2023-04-03T10:20:48;6.10;;;3.00;;
15833;SDS011;8017;50.812;4.934;2023-04-03T10:23:54;4.70;;;2.40;;
15833;SDS011;8017;50.812;4.934;2023-04-03T10:27:03;4.03;;;2.33;;
15833;SDS011;8017;50.812;4.934;2023-04-03T10:30:16;4.60;;;2.33;;
15833;SDS011;8017;50.812;4.934;2023-04-03T10:33:36;5.83;;;2.50;;
15833;SDS011;8017;50.812;4.934;2023-04-03T10:36:48;4.20;;;2.10;;
15833;SDS011;8017;50.812;4.934;2023-04-03T10:39:54;3.87;;;2.10;;
15833;SDS011;8017;50.812;4.934;2023-04-03T10:43:04;5.40;;;2.17;;
15833;SDS011;8017;50.812;4.934;2023-04-03T10:46:11;4.50;;;2.10;;
15833;SDS011;8017;50.812;4.934;2023-04-03T10:49:21;4.93;;;2.50;;
15833;SDS011;8017;50.812;4.934;2023-04-03T10:52:36;5.37;;;2.20;;
15833;SDS011;8017;50.812;4.934;2023-04-03T10:55:46;5.03;;;2.57;;
15833;SDS011;8017;50.812;4.934;2023-04-03T10:58:58;7.13;;;2.80;;
15833;SDS011;8017;50.812;4.934;2023-04-03T11:02:04;4.50;;;2.10;;
15833;SDS011;8017;50.812;4.934;2023-04-03T11:05:13;6.10;;;2.17;;
15833;SDS011;8017;50.812;4.934;2023-04-03T11:08:23;5.17;;;2.10;;
15833;SDS011;8017;50.812;4.934;2023-04-03T11:11:29;3.90;;;2.43;;
15833;SDS011;8017;50.812;4.934;2023-04-03T11:14:36;5.30;;;2.27;;
15833;SDS011;8017;50.812;4.934;2023-04-03T11:17:41;4.53;;;2.27;;
15833;SDS011;8017;50.812;4.934;2023-04-03T11:20:52;5.00;;;2.13;;
15833;SDS011;8017;50.812;4.934;2023-04-03T11:24:01;7.90;;;2.60;;
15833;SDS011;8017;50.812;4.934;2023-04-03T11:27:08;4.10;;;1.73;;
15833;SDS011;8017;50.812;4.934;2023-04-03T11:30:19;4.93;;;1.80;;
15833;SDS011;8017;50.812;4.934;2023-04-03T11:33:27;3.93;;;1.33;;
15833;SDS011;8017;50.812;4.934;2023-04-03T11:36:39;4.63;;;1.60;;
15833;SDS011;8017;50.812;4.934;2023-04-03T11:39:47;2.47;;;1.40;;
15833;SDS011;8017;50.812;4.934;2023-04-03T11:42:54;2.93;;;1.10;;
15833;SDS011;8017;50.812;4.934;2023-04-03T11:46:06;3.97;;;1.50;;
15833;SDS011;8017;50.812;4.934;2023-04-03T11:49:08;2.47;;;1.40;;
15833;SDS011;8017;50.812;4.934;2023-04-03T11:52:56;3.87;;;1.60;;
15833;SDS011;8017;50.812;4.934;2023-04-03T11:59:36;3.97;;;1.70;;
15833;SDS011;8017;50.812;4.934;2023-04-03T12:02:40;3.13;;;1.50;;
15833;SDS011;8017;50.812;4.934;2023-04-03T12:05:42;4.13;;;1.80;;
15833;SDS011;8017;50.812;4.934;2023-04-03T12:08:45;4.37;;;1.53;;
15833;SDS011;8017;50.812;4.934;2023-04-03T12:11:48;2.33;;;1.37;;
15833;SDS011;8017;50.812;4.934;2023-04-03T12:14:50;3.13;;;1.60;;
15833;SDS011;8017;50.812;4.934;2023-04-03T12:17:54;2.83;;;1.30;;
15833;SDS011;8017;50.812;4.934;2023-04-03T12:20:57;4.97;;;1.50;;
15833;SDS011;8017;50.812;4.934;2023-04-03T12:24:03;4.70;;;1.10;;
15833;SDS011;8017;50.812;4.934;2023-04-03T12:27:28;1.77;;;1.13;;
15833;SDS011;8017;50.812;4.934;2023-04-03T12:30:42;3.00;;;1.30;;
15833;SDS011;8017;50.812;4.934;2023-04-03T12:33:52;2.43;;;1.30;;
15833;SDS011;8017;50.812;4.934;2023-04-03T12:37:03;3.30;;;1.70;;
15833;SDS011;8017;50.812;4.934;2023-04-03T12:40:15;3.67;;;1.43;;
15833;SDS011;8017;50.812;4.934;2023-04-03T12:43:28;2.53;;;1.50;;
15833;SDS011;8017;50.812;4.934;2023-04-03T12:46:44;2.70;;;1.50;;
15833;SDS011;8017;50.812;4.934;2023-04-03T12:49:50;5.27;;;1.63;;
15833;SDS011;8017;50.812;4.934;2023-04-03T12:52:57;2.80;;;1.60;;
15833;SDS011;8017;50.812;4.934;2023-04-03T12:56:19;3.30;;;1.60;;
15833;SDS011;8017;50.812;4.934;2023-04-03T12:59:23;4.27;;;1.80;;
15833;SDS011;8017;50.812;4.934;2023-04-03T13:02:27;2.07;;;1.47;;
15833;SDS011;8017;50.812;4.934;2023-04-03T13:05:32;4.40;;;2.07;;
15833;SDS011;8017;50.812;4.934;2023-04-03T13:08:36;3.07;;;1.40;;
15833;SDS011;8017;50.812;4.934;2023-04-03T13:11:38;2.30;;;1.43;;
15833;SDS011;8017;50.812;4.934;2023-04-03T13:14:50;3.17;;;1.57;;
15833;SDS011;8017;50.812;4.934;2023-04-03T13:17:53;3.57;;;1.97;;
15833;SDS011;8017;50.812;4.934;2023-04-03T13:20:59;2.40;;;1.33;;
15833;SDS011;8017;50.812;4.934;2023-04-03T13:24:04;2.43;;;1.60;;
15833;SDS011;8017;50.812;4.934;2023-04-03T13:27:06;2.77;;;1.50;;
15833;SDS011;8017;50.812;4.934;2023-04-03T13:30:21;3.07;;;1.50;;
15833;SDS011;8017;50.812;4.934;2023-04-03T13:33:28;4.20;;;1.70;;
15833;SDS011;8017;50.812;4.934;2023-04-03T13:36:34;3.73;;;1.40;;
15833;SDS011;8017;50.812;4.934;2023-04-03T13:39:38;2.63;;;1.83;;
15833;SDS011;8017;50.812;4.934;2023-04-03T13:42:41;5.17;;;1.60;;
15833;SDS011;8017;50.812;4.934;2023-04-03T13:45:54;4.27;;;1.70;;
15833;SDS011;8017;50.812;4.934;2023-04-03T13:48:58;4.63;;;1.60;;
15833;SDS011;8017;50.812;4.934;2023-04-03T13:52:25;3.37;;;1.53;;
15833;SDS011;8017;50.812;4.934;2023-04-03T13:55:30;4.20;;;2.03;;
15833;SDS011;8017;50.812;4.934;2023-04-03T13:58:34;5.63;;;1.97;;
15833;SDS011;8017;50.812;4.934;2023-04-03T14:01:43;5.37;;;2.10;;
15833;SDS011;8017;50.812;4.934;2023-04-03T14:04:51;6.63;;;1.93;;
15833;SDS011;8017;50.812;4.934;2023-04-03T14:07:59;2.70;;;1.50;;
15833;SDS011;8017;50.812;4.934;2023-04-03T14:11:02;2.43;;;1.67;;
15833;SDS011;8017;50.812;4.934;2023-04-03T14:14:06;3.93;;;1.77;;
15833;SDS011;8017;50.812;4.934;2023-04-03T14:17:15;3.37;;;1.67;;
15833;SDS011;8017;50.812;4.934;2023-04-03T14:20:20;2.63;;;1.47;;
15833;SDS011;8017;50.812;4.934;2023-04-03T14:23:25;3.03;;;1.90;;
15833;SDS011;8017;50.812;4.934;2023-04-03T14:26:27;3.43;;;1.80;;
15833;SDS011;8017;50.812;4.934;2023-04-03T14:29:30;3.23;;;2.00;;
15833;SDS011;8017;50.812;4.934;2023-04-03T14:32:32;3.67;;;1.90;;
15833;SDS011;8017;50.812;4.934;2023-04-03T14:35:34;4.70;;;1.83;;
15833;SDS011;8017;50.812;4.934;2023-04-03T14:38:39;6.10;;;2.07;;
15833;SDS011;8017;50.812;4.934;2023-04-03T14:41:42;3.17;;;1.90;;
15833;SDS011;8017;50.812;4.934;2023-04-03T14:44:45;3.97;;;1.90;;
15833;SDS011;8017;50.812;4.934;2023-04-03T14:47:47;5.93;;;2.37;;
15833;SDS011;8017;50.812;4.934;2023-04-03T14:50:51;4.13;;;2.10;;
15833;SDS011;8017;50.812;4.934;2023-04-03T14:53:55;2.50;;;1.90;;
15833;SDS011;8017;50.812;4.934;2023-04-03T14:56:58;3.67;;;2.07;;
15833;SDS011;8017;50.812;4.934;2023-04-03T15:00:02;4.50;;;1.60;;
15833;SDS011;8017;50.812;4.934;2023-04-03T15:03:05;4.07;;;1.80;;
15833;SDS011;8017;50.812;4.934;2023-04-03T15:06:08;4.07;;;2.00;;
15833;SDS011;8017;50.812;4.934;2023-04-03T15:09:16;3.90;;;1.90;;
15833;SDS011;8017;50.812;4.934;2023-04-03T15:12:23;3.67;;;2.00;;
15833;SDS011;8017;50.812;4.934;2023-04-03T15:15:27;6.03;;;1.60;;
15833;SDS011;8017;50.812;4.934;2023-04-03T15:18:33;3.70;;;1.90;;
15833;SDS011;8017;50.812;4.934;2023-04-03T15:21:38;4.53;;;1.83;;
15833;SDS011;8017;50.812;4.934;2023-04-03T15:24:42;5.17;;;2.00;;
15833;SDS011;8017;50.812;4.934;2023-04-03T15:27:44;4.90;;;1.93;;
15833;SDS011;8017;50.812;4.934;2023-04-03T15:30:46;5.17;;;2.00;;
15833;SDS011;8017;50.812;4.934;2023-04-03T15:33:48;8.73;;;2.20;;
15833;SDS011;8017;50.812;4.934;2023-04-03T15:36:50;5.00;;;1.93;;
15833;SDS011;8017;50.812;4.934;2023-04-03T15:39:54;6.53;;;2.20;;
15833;SDS011;8017;50.812;4.934;2023-04-03T15:42:55;5.60;;;1.80;;
15833;SDS011;8017;50.812;4.934;2023-04-03T15:45:58;3.60;;;2.07;;
15833;SDS011;8017;50.812;4.934;2023-04-03T15:49:00;3.77;;;1.80;;
15833;SDS011;8017;50.812;4.934;2023-04-03T15:52:03;4.77;;;1.70;;
15833;SDS011;8017;50.812;4.934;2023-04-03T15:55:07;4.67;;;2.00;;
15833;SDS011;8017;50.812;4.934;2023-04-03T15:58:09;4.33;;;2.07;;
15833;SDS011;8017;50.812;4.934;2023-04-03T16:01:11;3.57;;;2.10;;
15833;SDS011;8017;50.812;4.934;2023-04-03T16:04:14;4.70;;;2.10;;
15833;SDS011;8017;50.812;4.934;2023-04-03T16:07:16;2.77;;;1.83;;
15833;SDS011;8017;50.812;4.934;2023-04-03T16:10:20;6.87;;;1.90;;
15833;SDS011;8017;50.812;4.934;2023-04-03T16:13:22;2.70;;;1.77;;
15833;SDS011;8017;50.812;4.934;2023-04-03T16:16:25;2.60;;;1.70;;
15833;SDS011;8017;50.812;4.934;2023-04-03T16:19:27;3.73;;;1.60;;
15833;SDS011;8017;50.812;4.934;2023-04-03T16:22:30;3.73;;;1.87;;
15833;SDS011;8017;50.812;4.934;2023-04-03T16:25:34;4.20;;;1.93;;
15833;SDS011;8017;50.812;4.934;2023-04-03T16:28:37;4.03;;;1.80;;
15833;SDS011;8017;50.812;4.934;2023-04-03T16:31:39;3.57;;;1.77;;
15833;SDS011;8017;50.812;4.934;2023-04-03T16:34:41;4.57;;;2.33;;
15833;SDS011;8017;50.812;4.934;2023-04-03T16:37:43;4.73;;;2.63;;
15833;SDS011;8017;50.812;4.934;2023-04-03T16:40:46;4.27;;;2.27;;
15833;SDS011;8017;50.812;4.934;2023-04-03T16:43:48;3.60;;;1.87;;
15833;SDS011;8017;50.812;4.934;2023-04-03T16:46:51;2.83;;;1.70;;
15833;SDS011;8017;50.812;4.934;2023-04-03T16:49:53;3.27;;;1.77;;
15833;SDS011;8017;50.812;4.934;2023-04-03T16:52:55;2.80;;;1.80;;
15833;SDS011;8017;50.812;4.934;2023-04-03T16:55:58;2.43;;;1.60;;
15833;SDS011;8017;50.812;4.934;2023-04-03T16:59:00;3.23;;;1.80;;
15833;SDS011;8017;50.812;4.934;2023-04-03T17:02:02;3.80;;;2.07;;
15833;SDS011;8017;50.812;4.934;2023-04-03T17:05:04;3.83;;;2.17;;
15833;SDS011;8017;50.812;4.934;2023-04-03T17:08:06;4.17;;;2.40;;
15833;SDS011;8017;50.812;4.934;2023-04-03T17:11:10;5.83;;;2.80;;
15833;SDS011;8017;50.812;4.934;2023-04-03T17:14:12;6.53;;;2.53;;
15833;SDS011;8017;50.812;4.934;2023-04-03T17:17:14;3.93;;;1.70;;
15833;SDS011;8017;50.812;4.934;2023-04-03T17:20:16;3.27;;;2.07;;
15833;SDS011;8017;50.812;4.934;2023-04-03T17:23:18;3.83;;;1.80;;
15833;SDS011;8017;50.812;4.934;2023-04-03T17:26:22;2.33;;;1.50;;
15833;SDS011;8017;50.812;4.934;2023-04-03T17:29:24;3.97;;;1.53;;
15833;SDS011;8017;50.812;4.934;2023-04-03T17:32:25;5.30;;;1.80;;
15833;SDS011;8017;50.812;4.934;2023-04-03T17:35:27;3.53;;;1.50;;
15833;SDS011;8017;50.812;4.934;2023-04-03T17:38:30;6.17;;;1.80;;
15833;SDS011;8017;50.812;4.934;2023-04-03T17:41:34;3.73;;;1.90;;
15833;SDS011;8017;50.812;4.934;2023-04-03T17:44:36;4.77;;;1.73;;
15833;SDS011;8017;50.812;4.934;2023-04-03T17:47:38;3.83;;;2.40;;
15833;SDS011;8017;50.812;4.934;2023-04-03T17:50:40;3.30;;;1.73;;
15833;SDS011;8017;50.812;4.934;2023-04-03T17:53:42;3.17;;;1.80;;
15833;SDS011;8017;50.812;4.934;2023-04-03T17:56:46;8.07;;;1.90;;
15833;SDS011;8017;50.812;4.934;2023-04-03T17:59:51;4.60;;;2.60;;
15833;SDS011;8017;50.812;4.934;2023-04-03T18:03:01;3.30;;;1.80;;
15833;SDS011;8017;50.812;4.934;2023-04-03T18:06:03;5.13;;;2.13;;
15833;SDS011;8017;50.812;4.934;2023-04-03T18:09:07;4.40;;;2.00;;
15833;SDS011;8017;50.812;4.934;2023-04-03T18:12:25;5.53;;;1.80;;
15833;SDS011;8017;50.812;4.934;2023-04-03T18:15:37;3.70;;;2.13;;
15833;SDS011;8017;50.812;4.934;2023-04-03T18:18:49;2.87;;;1.90;;
15833;SDS011;8017;50.812;4.934;2023-04-03T18:21:58;3.13;;;1.87;;
15833;SDS011;8017;50.812;4.934;2023-04-03T18:25:09;3.63;;;2.10;;
15833;SDS011;8017;50.812;4.934;2023-04-03T18:28:22;2.87;;;1.77;;
15833;SDS011;8017;50.812;4.934;2023-04-03T18:31:33;2.83;;;1.63;;
15833;SDS011;8017;50.812;4.934;2023-04-03T18:34:45;5.90;;;2.50;;
15833;SDS011;8017;50.812;4.934;2023-04-03T18:37:51;4.33;;;2.27;;
15833;SDS011;8017;50.812;4.934;2023-04-03T18:40:55;6.03;;;2.53;;
15833;SDS011;8017;50.812;4.934;2023-04-03T18:44:10;3.37;;;2.50;;
15833;SDS011;8017;50.812;4.934;2023-04-03T18:47:22;2.80;;;1.83;;